Have a Safe July 4th! 

Flight Track Log - Related Links

Times and Time Zones

All times are in EDT time to prevent confusion due to time zone crossing. See the N658FE flight status page for this flight to view local times or setup timezone preferences in your user account.

Time Position Orientation Groundspeed Altitude Reporting Facility
EDT Latitude Longitude Course Direction KTS MPH feet Rate Location/Type
Mon 10:42:00 PM 40.4667 -80.8944 270° West  Level FlightAware Approximate
Mon 10:42:07 PM 40.4930 -80.9040 270° West 20,200  Level FlightAware ADS-B
Mon 10:42:52 PM 40.4910 -81.0160 269° West 22,400 -162 Climbing FlightAware ADS-B
Mon 10:43:32 PM 40.4880 -81.1210 268° West 24,100 -250 Climbing FlightAware ADS-B
Mon 10:44:12 PM 40.4850 -81.2300 268° West 25,800 -322 Climbing FlightAware ADS-B
Mon 10:44:57 PM 40.4820 -81.3530 268° West 27,700 -399 Climbing FlightAware ADS-B
Mon 10:45:37 PM 40.4790 -81.4650 268° West 28,000 -489 Climbing FlightAware ADS-B
Mon 10:46:32 PM 40.4740 -81.6160 268° West 28,000 -515 Level FlightAware ADS-B
Mon 10:47:17 PM 40.4710 -81.7440 268° West 28,000 -536 Level FlightAware ADS-B
Mon 10:47:57 PM 40.4660 -81.8560 267° West 28,000 -555 Level FlightAware ADS-B
Mon 10:48:42 PM 40.4600 -81.9770 266° West 28,000 -572 Level FlightAware ADS-B
Mon 10:49:22 PM 40.4540 -82.0890 266° West 28,000 -593 Level FlightAware ADS-B
Mon 10:50:02 PM 40.4480 -82.1990 266° West 28,000 -613 Level FlightAware ADS-B
Mon 10:50:47 PM 40.4420 -82.3270 267° West 28,000 -634 Level FlightAware ADS-B
Mon 10:51:27 PM 40.4360 -82.4400 266° West 28,000 -659 Level FlightAware ADS-B
Mon 10:52:12 PM 40.4290 -82.5650 266° West 28,000 -684 Level FlightAware ADS-B
Mon 10:52:52 PM 40.4230 -82.6720 266° West 28,000 -714 Level FlightAware ADS-B
Mon 10:53:32 PM 40.4160 -82.7870 265° West 28,000 -743 Level FlightAware ADS-B
Mon 10:54:17 PM 40.4090 -82.9150 266° West 28,000 -775 Level FlightAware ADS-B
Mon 10:54:57 PM 40.4030 -83.0220 266° West 28,000 -813 Level FlightAware ADS-B
Mon 10:55:42 PM 40.3950 -83.1490 265° West 28,000 -851 Level FlightAware ADS-B
Mon 10:56:22 PM 40.3880 -83.2600 265° West 28,000 -898 Level FlightAware ADS-B
Mon 10:57:02 PM 40.3810 -83.3700 265° West 28,000 -945 Level FlightAware ADS-B
Mon 10:57:47 PM 40.3740 -83.4950 266° West 28,000 -996 Level FlightAware ADS-B
Mon 10:58:32 PM 40.3660 -83.6180 265° West 28,000 -1,061 Level FlightAware ADS-B
Mon 10:59:12 PM 40.3590 -83.7280 265° West 28,000 -1,135 Level FlightAware ADS-B
Mon 10:59:52 PM 40.3510 -83.8400 265° West 28,000 -1,210 Level FlightAware ADS-B
Mon 11:00:37 PM 40.3430 -83.9650 265° West 28,000 -1,296 Level FlightAware ADS-B
Mon 11:01:17 PM 40.3350 -84.0790 265° West 28,000 -1,408 Level FlightAware ADS-B
Mon 11:02:02 PM 40.3270 -84.1990 265° West 28,000 -1,525 Level FlightAware ADS-B
Mon 11:02:42 PM 40.3130 -84.3110 261° West 28,000 -1,683 Level FlightAware ADS-B
Mon 11:03:22 PM 40.2980 -84.4190 260° West 28,000 -1,853 Level FlightAware ADS-B
Mon 11:04:07 PM 40.2790 -84.5420 259° West 28,000 -2,062 Level FlightAware ADS-B
Mon 11:04:47 PM 40.2630 -84.6530 259° West 28,000 -2,361 Level FlightAware ADS-B
Mon 11:05:32 PM 40.2450 -84.7740 259° West 26,400 -2,711 Descending FlightAware ADS-B
Mon 11:06:12 PM 40.2290 -84.8780 259° West 24,600 -2,827 Descending FlightAware ADS-B
Mon 11:06:57 PM 40.2120 -84.9920 259° West 22,500 -2,854 Descending FlightAware ADS-B
Mon 11:07:32 PM 40.2000 -85.0730 259° West 21,000 -2,871 Descending FlightAware ADS-B
Mon 11:08:42 PM 40.1730 -85.2500 259° West 17,600 -2,971 Descending FlightAware ADS-B
Mon 11:09:17 PM 40.1583 -85.3364 259° West 406 467 15,800 -2,722 Descending Indianapolis Center
Mon 11:10:19 PM 40.1383 -85.4758 259° West 392 451 13,200 -2,341 Descending Indianapolis Center
Mon 11:11:20 PM 40.0975 -85.5989 247° West 374 430 11,000 -1,180 Descending Indianapolis Center
Mon 11:12:21 PM 40.0456 -85.7147 240° Southwest 367 422 10,800 -537 Descending Indianapolis Center
Mon 11:13:23 PM 40.0003 -85.8125 239° Southwest 323 372 9,900 -1,171 Descending Indianapolis Center
Mon 11:14:24 PM 39.9589 -85.9028 239° Southwest 293 337 8,400 -1,525 Descending Indianapolis Center
Mon 11:15:25 PM 39.9181 -85.9919 239° Southwest 287 330 6,800 -1,707 Descending Indianapolis Center
Mon 11:16:27 PM 39.8781 -86.0775 239° Southwest 280 322 4,900 -1,805 Descending Indianapolis Center
Mon 11:17:28 PM 39.8272 -86.1431 225° Southwest 265 305 3,100 -1,421 Descending Indianapolis Center
Mon 11:17:43 PM 39.8167 -86.1500 207° Southwest 239 275 3,100 -609 Level Indianapolis TRACON
Mon 11:18:37 PM 39.7833 -86.2000 229° Southwest 175 201 2,400 -727 Descending Indianapolis TRACON
Mon 11:19:55 PM 39.7500 -86.2500 229° Southwest 119 137 1,500 -511 Descending Indianapolis TRACON
Mon 11:21:33 PM 39.7008 -86.3022 219° Southwest 137 158 900 -367 Descending Indianapolis Center

Login

Don't have an account? Register now (free) for customized features, flight alerts, and more!